| time (UTC) | temp C | wind direction | speed KPH | gust KPH | rain 1hr cm | rain 24hr cm | rain mn cm | humidity % | barometer mb |
| 20260906052532 | 26 | 295 | 4.8 | 9.7 | 0.00 | 0.00 | 0.00 | 43 | 1019.1 |
| 20260906051614 | 26 | 292 | 6.4 | 12.9 | 0.00 | 0.00 | 0.00 | 43 | 1019.1 |
| 20260906050553 | 25 | 282 | 4.8 | 6.4 | 0.00 | 0.00 | 0.00 | 45 | 1019.0 |
| 20260906045532 | 24 | 231 | 4.8 | 9.7 | 0.00 | 0.00 | 0.00 | 46 | 1018.9 |
| 20260906044532 | 23 | 200 | 1.6 | 4.8 | 0.00 | 0.00 | 0.00 | 51 | 1018.8 |
| 20260906043532 | 22 | 0.0 | 0.0 | 0.00 | 0.00 | 0.00 | 54 | 1018.8 | |
| 20260906042532 | 22 | 0.0 | 0.0 | 0.00 | 0.00 | 0.00 | 54 | 1018.8 | |
| 20260906041532 | 22 | 0.0 | 0.0 | 0.00 | 0.00 | 0.00 | 55 | 1018.7 | |
| 20260906040533 | 22 | 0.0 | 0.0 | 0.00 | 0.00 | 0.00 | 54 | 1018.7 | |
| 20260906035532 | 22 | 0.0 | 0.0 | 0.00 | 0.00 | 0.00 | 55 | 1018.6 | |
| 20260906034532 | 22 | 0.0 | 0.0 | 0.00 | 0.00 | 0.00 | 54 | 1018.3 | |
| 20260906033532 | 22 | 0.0 | 0.0 | 0.00 | 0.00 | 0.00 | 54 | 1018.3 | |
| 20260906032532 | 22 | 0.0 | 0.0 | 0.00 | 0.00 | 0.00 | 53 | 1018.3 | |
| 20260906031533 | 22 | 198 | 0.0 | 3.2 | 0.00 | 0.00 | 0.00 | 55 | 1018.3 |
| 20260906030552 | 22 | 0.0 | 0.0 | 0.00 | 0.00 | 0.00 | 54 | 1018.4 | |
| 20260906025532 | 22 | 0.0 | 0.0 | 0.00 | 0.00 | 0.00 | 54 | 1018.3 | |
| 20260906024532 | 22 | 0.0 | 0.0 | 0.00 | 0.00 | 0.00 | 54 | 1018.3 | |
| 20260906023533 | 23 | 0.0 | 0.0 | 0.00 | 0.00 | 0.00 | 54 | 1018.2 | |
| 20260906022532 | 23 | 0.0 | 0.0 | 0.00 | 0.00 | 0.00 | 52 | 1018.2 | |
| 20260906021553 | 23 | 0.0 | 0.0 | 0.00 | 0.00 | 0.00 | 52 | 1018.3 | |
| 20260906020533 | 23 | 0.0 | 0.0 | 0.00 | 0.00 | 0.00 | 54 | 1018.2 | |
| 20260906015532 | 22 | 0.0 | 0.0 | 0.00 | 0.00 | 0.00 | 55 | 1018.2 | |
| 20260906014532 | 22 | 0.0 | 1.6 | 0.00 | 0.00 | 0.00 | 54 | 1018.3 | |
| 20260906013532 | 22 | 198 | 0.0 | 1.6 | 0.00 | 0.00 | 0.00 | 55 | 1018.3 |
| 20260906012532 | 22 | 198 | 0.0 | 1.6 | 0.00 | 0.00 | 0.00 | 55 | 1018.2 |
| 20260906011532 | 22 | 198 | 1.6 | 3.2 | 0.00 | 0.00 | 0.00 | 55 | 1018.3 |
| 20260906010533 | 23 | 198 | 1.6 | 3.2 | 0.00 | 0.00 | 0.00 | 55 | 1018.2 |
| 20260906005532 | 23 | 198 | 0.0 | 1.6 | 0.00 | 0.00 | 0.00 | 55 | 1018.2 |
| 20260906004532 | 23 | 198 | 0.0 | 3.2 | 0.00 | 0.00 | 0.00 | 55 | 1018.1 |
| 20260906003532 | 23 | 0.0 | 0.0 | 0.00 | 0.00 | 0.00 | 54 | 1018.2 | |
| 20260906002532 | 23 | 199 | 0.0 | 1.6 | 0.00 | 0.00 | 0.00 | 54 | 1018.1 |
| 20260906001532 | 23 | 199 | 1.6 | 3.2 | 0.00 | 0.00 | 0.00 | 53 | 1018.1 |
| 20260906000553 | 23 | 0.0 | 0.0 | 0.00 | 0.00 | 0.00 | 52 | 1018.1 | |
| 20260905235532 | 23 | 0.0 | 0.0 | 0.00 | 0.00 | 0.00 | 51 | 1018.2 | |
| 20260905234532 | 23 | 199 | 0.0 | 1.6 | 0.00 | 0.00 | 0.00 | 50 | 1018.3 |
| 20260905233532 | 23 | 0.0 | 1.6 | 0.00 | 0.00 | 0.00 | 51 | 1018.4 | |
| 20260905232532 | 24 | 199 | 0.0 | 1.6 | 0.00 | 0.00 | 0.00 | 50 | 1018.4 |
| 20260905231533 | 24 | 0.0 | 0.0 | 0.00 | 0.00 | 0.00 | 49 | 1018.4 | |
| 20260905230533 | 24 | 199 | 0.0 | 1.6 | 0.00 | 0.00 | 0.00 | 48 | 1018.3 |
| 20260905225533 | 24 | 199 | 0.0 | 1.6 | 0.00 | 0.00 | 0.00 | 47 | 1018.4 |
| 20260905224532 | 25 | 199 | 1.6 | 3.2 | 0.00 | 0.00 | 0.00 | 46 | 1018.5 |
| 20260905223532 | 25 | 198 | 0.0 | 3.2 | 0.00 | 0.00 | 0.00 | 46 | 1018.4 |
| 20260905222532 | 25 | 199 | 1.6 | 3.2 | 0.00 | 0.00 | 0.00 | 44 | 1018.3 |
| 20260905221553 | 26 | 0.0 | 0.0 | 0.00 | 0.00 | 0.00 | 43 | 1018.2 | |
| 20260905220553 | 27 | 199 | 0.0 | 1.6 | 0.00 | 0.00 | 0.00 | 40 | 1018.1 |
| 20260905215552 | 27 | 0.0 | 0.0 | 0.00 | 0.00 | 0.00 | 39 | 1018.4 | |
| 20260905214532 | 27 | 198 | 0.0 | 1.6 | 0.00 | 0.00 | 0.00 | 39 | 1018.2 |
| 20260905213532 | 27 | 199 | 0.0 | 3.2 | 0.00 | 0.00 | 0.00 | 40 | 1018.1 |
| 20260905212532 | 27 | 199 | 1.6 | 3.2 | 0.00 | 0.00 | 0.00 | 40 | 1018.1 |
| 20260905211533 | 27 | 199 | 0.0 | 1.6 | 0.00 | 0.00 | 0.00 | 40 | 1018.2 |
| 20260905210533 | 27 | 200 | 0.0 | 1.6 | 0.00 | 0.00 | 0.00 | 40 | 1018.2 |
| 20260905205532 | 27 | 200 | 1.6 | 3.2 | 0.00 | 0.00 | 0.00 | 39 | 1018.1 |
| 20260905204553 | 27 | 208 | 1.6 | 3.2 | 0.00 | 0.00 | 0.00 | 39 | 1018.0 |
| 20260905203532 | 27 | 208 | 1.6 | 3.2 | 0.00 | 0.00 | 0.00 | 38 | 1018.0 |
| 20260905202532 | 27 | 198 | 1.6 | 4.8 | 0.00 | 0.00 | 0.00 | 38 | 1017.9 |
| 20260905201552 | 27 | 214 | 1.6 | 4.8 | 0.00 | 0.00 | 0.00 | 38 | 1018.0 |
| 20260905200532 | 27 | 180 | 3.2 | 6.4 | 0.00 | 0.00 | 0.00 | 38 | 1018.0 |
| 20260905195532 | 27 | 180 | 3.2 | 6.4 | 0.00 | 0.00 | 0.00 | 39 | 1018.1 |
| 20260905194532 | 27 | 183 | 3.2 | 4.8 | 0.00 | 0.00 | 0.00 | 39 | 1018.2 |
| 20260905193532 | 27 | 195 | 3.2 | 4.8 | 0.00 | 0.00 | 0.00 | 39 | 1018.1 |
| 20260905192532 | 27 | 201 | 3.2 | 6.4 | 0.00 | 0.00 | 0.00 | 39 | 1018.0 |
| 20260905191553 | 27 | 191 | 3.2 | 6.4 | 0.00 | 0.00 | 0.00 | 39 | 1017.9 |
| 20260905190532 | 27 | 177 | 3.2 | 6.4 | 0.00 | 0.00 | 0.00 | 39 | 1017.9 |
| 20260905185533 | 28 | 182 | 3.2 | 6.4 | 0.00 | 0.00 | 0.00 | 40 | 1017.8 |
| 20260905184553 | 28 | 161 | 3.2 | 6.4 | 0.00 | 0.00 | 0.00 | 39 | 1017.7 |
| 20260905183533 | 28 | 132 | 3.2 | 6.4 | 0.00 | 0.00 | 0.00 | 38 | 1017.7 |
| 20260905182532 | 29 | 93 | 1.6 | 4.8 | 0.00 | 0.00 | 0.00 | 40 | 1017.7 |
| 20260905181532 | 30 | 91 | 1.6 | 3.2 | 0.00 | 0.00 | 0.00 | 39 | 1017.6 |
| 20260905180532 | 30 | 91 | 1.6 | 3.2 | 0.00 | 0.00 | 0.00 | 37 | 1017.5 |
| 20260905175532 | 31 | 87 | 1.6 | 3.2 | 0.00 | 0.00 | 0.00 | 40 | 1017.4 |
| 20260905174532 | 31 | 94 | 0.0 | 3.2 | 0.00 | 0.00 | 0.00 | 38 | 1017.2 |
| 20260905173532 | 31 | 94 | 3.2 | 3.2 | 0.00 | 0.00 | 0.00 | 42 | 1017.2 |
| 20260905172532 | 31 | 108 | 3.2 | 4.8 | 0.00 | 0.00 | 0.00 | 46 | 1017.0 |
| 20260905171532 | 31 | 109 | 3.2 | 6.4 | 0.00 | 0.00 | 0.00 | 52 | 1017.1 |
| 20260905170613 | 31 | 97 | 4.8 | 9.7 | 0.00 | 0.00 | 0.00 | 55 | 1017.1 |
| 20260905165532 | 31 | 102 | 6.4 | 11.3 | 0.00 | 0.00 | 0.00 | 52 | 1017.0 |
| 20260905164532 | 31 | 104 | 4.8 | 9.7 | 0.00 | 0.00 | 0.00 | 50 | 1016.9 |
| 20260905163532 | 32 | 103 | 6.4 | 9.7 | 0.00 | 0.00 | 0.00 | 42 | 1017.0 |
| 20260905163032 | 33 | 110 | 4.8 | 9.7 | 0.00 | 0.00 | 0.00 | 37 | 1017.0 |
| 20260905162032 | 32 | 78 | 6.4 | 12.9 | 0.00 | 0.00 | 0.00 | 35 | 1017.0 |
| 20260905161053 | 33 | 95 | 6.4 | 11.3 | 0.00 | 0.00 | 0.00 | 35 | 1016.9 |
| 20260905160053 | 32 | 91 | 6.4 | 14.5 | 0.00 | 0.00 | 0.00 | 38 | 1017.0 |
| 20260905155052 | 32 | 97 | 8.0 | 12.9 | 0.00 | 0.00 | 0.00 | 45 | 1017.0 |
| 20260905154032 | 32 | 103 | 6.4 | 12.9 | 0.00 | 0.00 | 0.00 | 43 | 1016.9 |
| 20260905153032 | 32 | 90 | 8.0 | 14.5 | 0.00 | 0.00 | 0.00 | 48 | 1017.0 |
| 20260905152032 | 31 | 93 | 8.0 | 14.5 | 0.00 | 0.00 | 0.00 | 51 | 1017.0 |
| 20260905151032 | 31 | 107 | 9.7 | 17.7 | 0.00 | 0.00 | 0.00 | 53 | 1017.0 |
| 20260905150032 | 31 | 115 | 6.4 | 17.7 | 0.00 | 0.00 | 0.00 | 56 | 1017.1 |
| 20260905145032 | 31 | 93 | 8.0 | 17.7 | 0.00 | 0.00 | 0.00 | 53 | 1017.2 |
| 20260905144032 | 31 | 96 | 8.0 | 20.9 | 0.00 | 0.00 | 0.00 | 50 | 1017.2 |
| 20260905143032 | 31 | 112 | 11.3 | 17.7 | 0.00 | 0.00 | 0.00 | 56 | 1017.2 |
| 20260905142032 | 31 | 108 | 14.5 | 22.5 | 0.00 | 0.00 | 0.00 | 58 | 1017.3 |
| 20260905141032 | 31 | 76 | 6.4 | 14.5 | 0.00 | 0.00 | 0.00 | 55 | 1017.5 |
| 20260905140032 | 31 | 75 | 8.0 | 17.7 | 0.00 | 0.00 | 0.00 | 54 | 1017.5 |
| 20260905135032 | 31 | 81 | 8.0 | 17.7 | 0.00 | 0.00 | 0.00 | 51 | 1017.5 |
| 20260905134032 | 31 | 96 | 11.3 | 17.7 | 0.00 | 0.00 | 0.00 | 53 | 1017.4 |
| 20260905133032 | 31 | 86 | 8.0 | 17.7 | 0.00 | 0.00 | 0.00 | 53 | 1017.7 |
| 20260905132032 | 31 | 90 | 8.0 | 20.9 | 0.00 | 0.00 | 0.00 | 55 | 1017.6 |
| 20260905131032 | 31 | 103 | 12.9 | 22.5 | 0.00 | 0.00 | 0.00 | 54 | 1017.7 |
| 20260905130032 | 31 | 55 | 8.0 | 17.7 | 0.00 | 0.00 | 0.00 | 55 | 1017.9 |
| 20260905125032 | 31 | 74 | 9.7 | 17.7 | 0.00 | 0.00 | 0.00 | 56 | 1018.0 |
| 20260905124032 | 31 | 49 | 4.8 | 14.5 | 0.00 | 0.00 | 0.00 | 54 | 1018.0 |
| 20260905123031 | 31 | 67 | 8.0 | 24.1 | 0.00 | 0.00 | 0.00 | 53 | 1018.1 |
| 20260905122032 | 31 | 109 | 8.0 | 16.1 | 0.00 | 0.00 | 0.00 | 53 | 1018.1 |
| 20260905121032 | 31 | 83 | 6.4 | 17.7 | 0.00 | 0.00 | 0.00 | 53 | 1018.2 |
| 20260905120032 | 32 | 29 | 6.4 | 14.5 | 0.00 | 0.00 | 0.00 | 52 | 1018.4 |
| 20260905115032 | 32 | 16 | 3.2 | 12.9 | 0.00 | 0.00 | 0.00 | 51 | 1018.4 |
| 20260905114032 | 32 | 79 | 6.4 | 16.1 | 0.00 | 0.00 | 0.00 | 51 | 1018.4 |
| 20260905113032 | 33 | 43 | 4.8 | 12.9 | 0.00 | 0.00 | 0.00 | 45 | 1018.3 |
| 20260905112031 | 32 | 21 | 3.2 | 14.5 | 0.00 | 0.00 | 0.00 | 42 | 1018.4 |
| 20260905111033 | 32 | 118 | 4.8 | 14.5 | 0.00 | 0.00 | 0.00 | 44 | 1018.4 |
| 20260905110032 | 32 | 58 | 4.8 | 12.9 | 0.00 | 0.00 | 0.00 | 45 | 1018.4 |
| 20260905105032 | 32 | 96 | 6.4 | 14.5 | 0.00 | 0.00 | 0.00 | 45 | 1018.4 |
| 20260905104032 | 32 | 80 | 6.4 | 16.1 | 0.00 | 0.00 | 0.00 | 44 | 1018.4 |
| 20260905103032 | 32 | 70 | 6.4 | 16.1 | 0.00 | 0.00 | 0.00 | 40 | 1018.5 |
| 20260905102032 | 32 | 98 | 6.4 | 16.1 | 0.00 | 0.00 | 0.00 | 42 | 1018.7 |
| 20260905101033 | 32 | 85 | 4.8 | 14.5 | 0.00 | 0.00 | 0.00 | 37 | 1018.7 |
| 20260905100032 | 32 | 35 | 4.8 | 12.9 | 0.00 | 0.00 | 0.00 | 37 | 1018.7 |
| 20260905095033 | 32 | 78 | 4.8 | 14.5 | 0.00 | 0.00 | 0.00 | 36 | 1018.8 |
| 20260905094052 | 32 | 35 | 3.2 | 9.7 | 0.00 | 0.00 | 0.00 | 36 | 1018.8 |
| 20260905093032 | 32 | 80 | 6.4 | 16.1 | 0.00 | 0.00 | 0.00 | 38 | 1018.9 |
| 20260905092032 | 32 | 57 | 3.2 | 12.9 | 0.00 | 0.00 | 0.00 | 38 | 1018.8 |
| 20260905091032 | 32 | 73 | 4.8 | 11.3 | 0.00 | 0.00 | 0.00 | 39 | 1018.9 |
| 20260905090032 | 32 | 31 | 1.6 | 9.7 | 0.00 | 0.00 | 0.00 | 40 | 1018.8 |
| 20260905085032 | 32 | 64 | 3.2 | 9.7 | 0.00 | 0.00 | 0.00 | 38 | 1019.0 |
| 20260905084032 | 32 | 37 | 3.2 | 9.7 | 0.00 | 0.00 | 0.00 | 43 | 1019.0 |
| 20260905083031 | 32 | 99 | 4.8 | 12.9 | 0.00 | 0.00 | 0.00 | 40 | 1019.0 |
| 20260905082031 | 32 | 90 | 3.2 | 9.7 | 0.00 | 0.00 | 0.00 | 40 | 1018.9 |
| 20260905081032 | 33 | 80 | 3.2 | 6.4 | 0.00 | 0.00 | 0.00 | 33 | 1018.9 |
| 20260905080032 | 33 | 127 | 1.6 | 4.8 | 0.00 | 0.00 | 0.00 | 26 | 1018.9 |
| 20260905075032 | 33 | 151 | 3.2 | 9.7 | 0.00 | 0.00 | 0.00 | 27 | 1018.8 |
| 20260905074032 | 32 | 168 | 3.2 | 6.4 | 0.00 | 0.00 | 0.00 | 28 | 1018.9 |
| 20260905073032 | 32 | 191 | 1.6 | 4.8 | 0.00 | 0.00 | 0.00 | 31 | 1018.9 |
| 20260905072031 | 31 | 172 | 1.6 | 6.4 | 0.00 | 0.00 | 0.00 | 32 | 1018.8 |
| 20260905071032 | 31 | 165 | 1.6 | 6.4 | 0.00 | 0.00 | 0.00 | 35 | 1018.8 |
| 20260905070032 | 30 | 173 | 3.2 | 9.7 | 0.00 | 0.00 | 0.00 | 35 | 1018.8 |
| 20260905065032 | 29 | 216 | 1.6 | 6.4 | 0.00 | 0.00 | 0.00 | 37 | 1018.8 |
| 20260905064032 | 28 | 192 | 4.8 | 9.7 | 0.00 | 0.00 | 0.00 | 40 | 1018.8 |
| 20260905063032 | 27 | 198 | 3.2 | 6.4 | 0.00 | 0.00 | 0.00 | 42 | 1018.8 |
| 20260905062032 | 26 | 211 | 3.2 | 4.8 | 0.00 | 0.00 | 0.00 | 44 | 1018.9 |
| 20260905061032 | 25 | 196 | 1.6 | 4.8 | 0.00 | 0.00 | 0.00 | 46 | 1018.7 |
| 20260905060032 | 25 | 200 | 3.2 | 9.7 | 0.00 | 0.00 | 0.00 | 47 | 1018.8 |
| 20260905055032 | 23 | 206 | 3.2 | 6.4 | 0.00 | 0.00 | 0.00 | 48 | 1018.8 |
| 20260905054032 | 23 | 196 | 3.2 | 6.4 | 0.00 | 0.00 | 0.00 | 48 | 1018.9 |